createdAt,value
2018-11-23T00:00:44.929Z,9.80
2018-11-23T00:03:14.398Z,9.70
2018-11-23T00:05:44.365Z,9.80
2018-11-23T00:08:14.626Z,9.70
2018-11-23T00:10:44.192Z,9.80
2018-11-23T00:13:13.849Z,9.80
2018-11-23T00:15:43.393Z,9.80
2018-11-23T00:18:12.910Z,9.80
2018-11-23T00:20:42.971Z,9.70
2018-11-23T00:23:12.426Z,9.70
2018-11-23T00:25:42.177Z,9.70
2018-11-23T00:28:11.990Z,9.70
2018-11-23T00:30:42.153Z,9.50
2018-11-23T00:33:12.530Z,9.30
2018-11-23T00:35:41.924Z,9.30
2018-11-23T00:38:11.411Z,9.40
2018-11-23T00:40:40.797Z,9.40
2018-11-23T00:43:10.125Z,9.40
2018-11-23T00:45:43.016Z,9.40
2018-11-23T00:48:09.733Z,9.40
2018-11-23T00:50:39.948Z,9.30
2018-11-23T00:53:09.898Z,9.20
2018-11-23T00:55:39.345Z,9.30
2018-11-23T00:58:08.914Z,9.30
2018-11-23T01:00:38.673Z,9.40
2018-11-23T01:03:08.389Z,9.40
2018-11-23T01:05:38.392Z,9.40
2018-11-23T01:08:07.942Z,9.40
2018-11-23T01:10:37.679Z,9.50
2018-11-23T01:13:08.581Z,9.40
2018-11-23T01:15:37.887Z,9.30
2018-11-23T01:18:08.312Z,9.20
2018-11-23T01:20:38.490Z,9.10
2018-11-23T01:23:08.254Z,9.10
2018-11-23T01:25:37.713Z,9.20
2018-11-23T01:28:07.355Z,9.10
2018-11-23T01:30:36.812Z,9.20
2018-11-23T01:33:07.071Z,9.20
2018-11-23T01:35:37.103Z,9.20
2018-11-23T01:38:06.758Z,9.30
2018-11-23T01:40:36.305Z,9.30
2018-11-23T01:43:05.796Z,9.30
2018-11-23T01:45:35.411Z,9.40
2018-11-23T01:48:05.202Z,9.40
2018-11-23T01:50:35.424Z,9.30
2018-11-23T01:53:04.995Z,9.30
2018-11-23T01:55:34.643Z,9.30
2018-11-23T01:58:06.712Z,9.30
2018-11-23T02:00:37.490Z,9.30
2018-11-23T02:03:06.970Z,9.30
2018-11-23T02:05:36.131Z,9.30
2018-11-23T02:08:06.411Z,9.30
2018-11-23T02:10:36.019Z,9.30
2018-11-23T02:13:05.490Z,9.40
2018-11-23T02:15:35.252Z,9.40
2018-11-23T02:18:04.893Z,9.50
2018-11-23T02:20:34.348Z,9.40
2018-11-23T02:23:03.796Z,9.50
2018-11-23T02:25:33.153Z,9.40
2018-11-23T02:28:02.829Z,9.30
2018-11-23T02:30:32.683Z,9.20
2018-11-23T02:33:03.784Z,9.20
2018-11-23T02:35:33.184Z,9.30
2018-11-23T02:38:03.153Z,9.20
2018-11-23T02:40:32.526Z,9.20
2018-11-23T02:43:01.853Z,9.30
2018-11-23T02:45:32.142Z,9.40
2018-11-23T02:48:02.221Z,9.40
2018-11-23T02:50:32.856Z,9.40
2018-11-23T02:53:01.939Z,9.30
2018-11-23T02:55:31.815Z,9.30
2018-11-23T02:58:03.910Z,9.30
2018-11-23T03:00:33.662Z,9.30
2018-11-23T03:03:03.129Z,9.20
2018-11-23T03:05:33.970Z,9.30
2018-11-23T03:08:05.403Z,9.30
2018-11-23T03:10:34.998Z,9.20
2018-11-23T03:13:05.130Z,9.30
2018-11-23T03:15:38.736Z,9.30
2018-11-23T03:18:08.069Z,9.40
2018-11-23T03:20:38.608Z,9.20
2018-11-23T03:23:08.909Z,9.20
2018-11-23T03:25:39.906Z,9.20
2018-11-23T03:28:12.183Z,9.20
2018-11-23T03:33:29.415Z,9.30
2018-11-23T03:35:59.092Z,9.20
2018-11-23T03:38:28.715Z,9.20
2018-11-23T03:40:59.197Z,9.30
2018-11-23T03:43:30.044Z,9.20
2018-11-23T03:45:59.881Z,9.20
2018-11-23T03:48:30.138Z,9.30
2018-11-23T03:50:59.803Z,9.30
2018-11-23T03:53:29.344Z,9.30
2018-11-23T03:55:58.977Z,9.40
2018-11-23T03:58:28.668Z,9.40
2018-11-23T04:00:58.062Z,9.30
2018-11-23T04:03:27.980Z,9.30
2018-11-23T04:05:57.389Z,9.30
2018-11-23T04:08:27.089Z,9.30
2018-11-23T04:10:57.311Z,9.30
2018-11-23T04:13:26.818Z,9.30
2018-11-23T04:15:56.392Z,9.40
2018-11-23T04:18:25.859Z,9.40
2018-11-23T04:20:55.362Z,9.30
2018-11-23T04:23:26.268Z,9.40
2018-11-23T04:25:55.967Z,9.30
2018-11-23T04:28:26.351Z,9.40
2018-11-23T04:30:56.403Z,9.30
2018-11-23T04:33:25.980Z,9.40
2018-11-23T04:35:55.581Z,9.40
2018-11-23T04:38:25.067Z,9.40
2018-11-23T04:40:54.956Z,9.30
2018-11-23T04:43:24.634Z,9.30
2018-11-23T04:45:54.302Z,9.30
2018-11-23T04:48:24.437Z,9.30
2018-11-23T04:50:53.909Z,9.30
2018-11-23T04:53:23.318Z,9.30
2018-11-23T04:55:52.620Z,9.30
2018-11-23T04:58:22.242Z,9.40
2018-11-23T05:00:51.868Z,9.40
2018-11-23T05:03:22.834Z,9.40
2018-11-23T05:05:52.733Z,9.40
2018-11-23T05:08:22.462Z,9.50
2018-11-23T05:10:53.213Z,9.50
2018-11-23T05:13:22.684Z,9.50
2018-11-23T05:15:52.495Z,9.50
2018-11-23T05:18:22.844Z,9.50
2018-11-23T05:20:52.572Z,9.50
2018-11-23T05:23:22.515Z,9.50
2018-11-23T05:25:53.817Z,9.50
2018-11-23T05:28:23.838Z,9.50
2018-11-23T05:30:55.513Z,9.50
2018-11-23T05:33:25.537Z,9.50
2018-11-23T05:35:56.074Z,9.50
2018-11-23T05:38:25.783Z,9.50
2018-11-23T05:40:56.917Z,9.50
2018-11-23T05:43:26.805Z,9.40
2018-11-23T05:45:56.986Z,9.30
2018-11-23T05:48:27.390Z,9.40
2018-11-23T05:50:57.128Z,9.40
2018-11-23T05:53:26.928Z,9.40
2018-11-23T05:55:56.527Z,9.40
2018-11-23T05:58:26.521Z,9.30
2018-11-23T06:00:57.086Z,9.30
2018-11-23T06:03:26.854Z,9.40
2018-11-23T06:05:56.473Z,9.40
2018-11-23T06:08:25.873Z,9.40
2018-11-23T06:10:55.422Z,9.30
2018-11-23T06:13:25.700Z,9.30
2018-11-23T06:15:56.175Z,9.20
2018-11-23T06:18:25.518Z,9.20
2018-11-23T06:20:55.776Z,9.30
2018-11-23T06:23:25.681Z,9.30
2018-11-23T06:25:55.388Z,9.30
2018-11-23T06:28:25.122Z,9.40
2018-11-23T06:30:56.048Z,9.40
2018-11-23T06:33:25.739Z,9.40
2018-11-23T06:35:55.001Z,9.50
2018-11-23T06:38:25.598Z,9.30
2018-11-23T06:40:55.433Z,9.30
2018-11-23T06:43:25.045Z,9.30
2018-11-23T06:45:55.436Z,9.30
2018-11-23T06:48:25.629Z,9.20
2018-11-23T06:50:54.927Z,9.30
2018-11-23T06:53:24.448Z,9.30
2018-11-23T06:55:54.189Z,9.20
2018-11-23T06:58:23.534Z,9.10
2018-11-23T07:00:54.820Z,9.20
2018-11-23T07:03:24.525Z,9.20
2018-11-23T07:05:55.730Z,9.20
2018-11-23T07:08:25.904Z,9.20
2018-11-23T07:10:55.682Z,9.20
2018-11-23T07:13:25.402Z,9.20
2018-11-23T07:15:54.819Z,9.20
2018-11-23T07:18:24.943Z,9.20
2018-11-23T07:20:54.559Z,9.10
2018-11-23T07:23:23.452Z,9.10
2018-11-23T07:25:54.279Z,9.10
2018-11-23T07:28:24.223Z,9.00
2018-11-23T07:30:54.376Z,9.10
2018-11-23T07:33:23.968Z,9.10
2018-11-23T07:35:53.458Z,9.10
2018-11-23T07:38:24.003Z,9.00
2018-11-23T07:41:04.677Z,9.00
2018-11-23T07:43:34.172Z,9.00
2018-11-23T07:46:05.140Z,9.00
2018-11-23T07:48:34.788Z,9.00
2018-11-23T07:51:04.591Z,9.00
2018-11-23T07:53:34.120Z,9.00
2018-11-23T07:56:05.386Z,9.10
2018-11-23T07:58:34.878Z,9.10
2018-11-23T08:01:04.357Z,9.10
2018-11-23T08:03:33.811Z,9.20
2018-11-23T08:06:04.218Z,9.10
2018-11-23T08:08:35.077Z,9.20
2018-11-23T08:11:05.074Z,9.20
2018-11-23T08:13:35.774Z,9.20
2018-11-23T08:16:05.364Z,9.10
2018-11-23T08:18:34.715Z,9.10
2018-11-23T08:21:04.095Z,9.10
2018-11-23T08:23:33.741Z,9.10
2018-11-23T08:26:03.378Z,9.10
2018-11-23T08:28:32.953Z,9.10
2018-11-23T08:31:04.521Z,9.00
2018-11-23T08:33:35.551Z,8.80
2018-11-23T08:36:06.015Z,8.80
2018-11-23T08:38:36.013Z,8.80
2018-11-23T08:41:06.625Z,8.80
2018-11-23T08:43:36.154Z,8.80
2018-11-23T08:46:05.993Z,8.80
2018-11-23T08:48:35.521Z,8.80
2018-11-23T08:51:04.930Z,8.90
2018-11-23T08:53:34.670Z,8.90
2018-11-23T08:56:05.092Z,8.90
2018-11-23T08:58:34.865Z,8.80
2018-11-23T09:01:04.259Z,8.80
2018-11-23T09:03:33.896Z,8.90
2018-11-23T09:06:04.298Z,8.90
2018-11-23T09:08:33.985Z,8.90
2018-11-23T09:11:04.610Z,8.90
2018-11-23T09:13:34.196Z,8.90
2018-11-23T09:16:04.559Z,9.00
2018-11-23T09:18:33.938Z,8.90
2018-11-23T09:21:04.422Z,8.90
2018-11-23T09:23:33.700Z,8.90
2018-11-23T09:26:03.198Z,8.90
2018-11-23T09:28:33.686Z,8.90
2018-11-23T09:31:03.360Z,9.00
2018-11-23T09:33:34.771Z,9.00
2018-11-23T09:36:04.483Z,9.00
2018-11-23T09:38:34.765Z,9.00
2018-11-23T09:41:05.497Z,9.00
2018-11-23T09:43:35.000Z,9.10
2018-11-23T09:46:04.883Z,9.00
2018-11-23T09:48:34.250Z,9.00
2018-11-23T09:51:03.741Z,9.00
2018-11-23T09:53:33.183Z,9.00
2018-11-23T09:56:02.912Z,9.10
2018-11-23T09:58:32.081Z,9.10
2018-11-23T10:01:01.680Z,9.00
2018-11-23T10:03:31.152Z,9.00
2018-11-23T10:06:01.622Z,9.10
2018-11-23T10:08:33.510Z,9.00
2018-11-23T10:11:03.805Z,9.00
2018-11-23T10:13:33.609Z,9.00
2018-11-23T10:16:03.865Z,9.00
2018-11-23T10:18:33.184Z,9.00
2018-11-23T10:21:02.767Z,9.00
2018-11-23T10:23:32.296Z,9.00
2018-11-23T10:26:03.081Z,8.90
2018-11-23T10:28:32.482Z,8.80
2018-11-23T10:31:01.909Z,8.70
2018-11-23T10:33:31.570Z,8.70
2018-11-23T10:36:01.231Z,8.70
2018-11-23T10:38:31.520Z,8.70
2018-11-23T10:41:02.846Z,8.70
2018-11-23T10:43:32.213Z,8.80
2018-11-23T10:46:01.617Z,8.80
2018-11-23T10:48:31.411Z,8.90
2018-11-23T10:51:02.068Z,8.90
2018-11-23T10:53:31.734Z,8.90
2018-11-23T10:56:00.951Z,8.90
2018-11-23T10:58:30.355Z,8.80
2018-11-23T11:01:01.096Z,8.90
2018-11-23T11:03:31.004Z,8.90
2018-11-23T11:06:03.045Z,9.00
2018-11-23T11:08:32.529Z,9.00
2018-11-23T11:11:02.161Z,9.00
2018-11-23T11:13:31.648Z,9.00
2018-11-23T11:16:01.128Z,9.00
2018-11-23T11:18:30.382Z,9.00
2018-11-23T11:20:59.630Z,8.90
2018-11-23T11:23:28.985Z,8.90
2018-11-23T11:25:59.490Z,9.00
2018-11-23T11:28:29.846Z,9.00
2018-11-23T11:30:59.592Z,9.00
2018-11-23T11:33:29.009Z,9.10
2018-11-23T11:35:59.564Z,9.10
2018-11-23T11:38:30.122Z,9.10
2018-11-23T11:40:59.586Z,9.10
2018-11-23T11:43:29.902Z,9.10
2018-11-23T11:46:00.057Z,9.10
2018-11-23T11:48:29.512Z,9.00
2018-11-23T11:50:59.098Z,9.00
2018-11-23T11:53:28.701Z,9.00
2018-11-23T11:55:58.225Z,9.00
2018-11-23T11:58:27.599Z,8.90
2018-11-23T12:00:57.671Z,9.00
2018-11-23T12:03:28.157Z,9.00
2018-11-23T12:05:57.515Z,9.00
2018-11-23T12:08:27.842Z,9.00
2018-11-23T12:10:59.041Z,9.00
2018-11-23T12:13:28.463Z,9.10
2018-11-23T12:15:57.785Z,9.10
2018-11-23T12:18:27.539Z,9.00
2018-11-23T12:20:57.102Z,9.00
2018-11-23T12:23:26.918Z,9.00
2018-11-23T12:25:57.424Z,9.00
2018-11-23T12:28:27.604Z,9.00
2018-11-23T12:30:57.102Z,9.00
2018-11-23T12:33:26.902Z,9.00
2018-11-23T12:35:56.323Z,9.00
2018-11-23T12:38:25.815Z,9.00
2018-11-23T12:40:55.188Z,9.10
2018-11-23T12:43:24.607Z,9.20
2018-11-23T12:45:54.186Z,9.10
2018-11-23T12:48:23.575Z,9.00
2018-11-23T12:50:53.061Z,9.10
2018-11-23T12:53:22.791Z,9.10
2018-11-23T12:55:52.237Z,9.00
2018-11-23T12:58:21.966Z,9.00
2018-11-23T13:00:52.472Z,9.00
2018-11-23T13:03:22.121Z,9.00
2018-11-23T13:05:51.662Z,9.10
2018-11-23T13:08:21.283Z,9.00
2018-11-23T13:10:51.051Z,9.00
2018-11-23T13:13:20.761Z,9.00
2018-11-23T13:15:50.686Z,9.00
2018-11-23T13:18:20.457Z,8.90
2018-11-23T13:20:57.095Z,8.90
2018-11-23T13:23:26.590Z,8.90
2018-11-23T13:25:56.313Z,8.90
2018-11-23T13:28:25.844Z,9.00
2018-11-23T13:30:54.783Z,9.00
2018-11-23T13:33:24.387Z,9.00
2018-11-23T13:35:54.616Z,8.90
2018-11-23T13:38:24.241Z,8.90
2018-11-23T13:40:53.928Z,9.00
2018-11-23T13:43:23.395Z,9.00
2018-11-23T13:45:53.196Z,8.90
2018-11-23T13:48:22.904Z,8.90
2018-11-23T13:50:53.621Z,8.90
2018-11-23T13:53:23.848Z,8.90
2018-11-23T13:55:54.070Z,9.00
2018-11-23T13:58:24.519Z,9.00
2018-11-23T14:00:54.290Z,9.00
2018-11-23T14:03:23.710Z,9.10
2018-11-23T14:05:53.358Z,9.10
2018-11-23T14:08:23.778Z,9.00
2018-11-23T14:10:54.762Z,9.00
2018-11-23T14:13:24.516Z,9.00
2018-11-23T14:15:53.965Z,8.90
2018-11-23T14:18:23.577Z,8.90
2018-11-23T14:20:53.148Z,9.00
2018-11-23T14:23:22.974Z,9.00
2018-11-23T14:25:52.444Z,9.00
2018-11-23T14:28:23.260Z,9.00
2018-11-23T14:30:52.767Z,9.00
2018-11-23T14:33:22.175Z,9.00
2018-11-23T14:35:51.674Z,8.90
2018-11-23T14:38:22.017Z,9.00
2018-11-23T14:40:51.343Z,8.90
2018-11-23T14:43:21.354Z,8.90
2018-11-23T14:45:50.920Z,8.90
2018-11-23T14:48:20.348Z,8.80
2018-11-23T14:50:49.947Z,8.80
2018-11-23T14:53:19.402Z,8.70
2018-11-23T14:55:49.526Z,8.80
2018-11-23T14:58:19.034Z,8.80
2018-11-23T15:00:48.789Z,8.80
2018-11-23T15:03:19.406Z,8.90
2018-11-23T15:05:48.977Z,8.80
2018-11-23T15:08:19.358Z,8.90
2018-11-23T15:10:48.943Z,8.80
2018-11-23T15:13:19.320Z,8.90
2018-11-23T15:15:48.661Z,8.90
2018-11-23T15:18:19.277Z,8.80
2018-11-23T15:20:50.082Z,8.70
2018-11-23T15:23:20.081Z,8.80
2018-11-23T15:25:49.718Z,8.80
2018-11-23T15:28:19.515Z,8.90
2018-11-23T15:30:49.123Z,9.00
2018-11-23T15:33:19.525Z,8.90
2018-11-23T15:35:51.598Z,9.00
2018-11-23T15:38:20.517Z,8.90
2018-11-23T15:40:50.458Z,8.90
2018-11-23T15:43:20.074Z,8.90
2018-11-23T15:45:49.866Z,8.80
2018-11-23T15:48:19.403Z,8.80
2018-11-23T15:50:49.145Z,8.70
2018-11-23T15:53:19.361Z,8.60
2018-11-23T15:55:49.380Z,8.50
2018-11-23T15:58:18.736Z,8.50
2018-11-23T16:00:48.169Z,8.40
2018-11-23T16:03:17.956Z,8.50
2018-11-23T16:05:47.571Z,8.60
2018-11-23T16:08:17.569Z,8.70
2018-11-23T16:10:47.257Z,8.80
2018-11-23T16:13:16.849Z,8.80
2018-11-23T16:15:46.355Z,8.80
2018-11-23T16:18:15.958Z,8.80
2018-11-23T16:20:45.630Z,8.80
2018-11-23T16:23:15.117Z,8.80
2018-11-23T16:25:44.639Z,8.80
2018-11-23T16:28:15.103Z,8.70
2018-11-23T16:30:44.832Z,8.70
2018-11-23T16:33:14.260Z,8.70
2018-11-23T16:35:43.709Z,8.80
2018-11-23T16:38:15.309Z,8.80
2018-11-23T16:40:44.924Z,8.80
2018-11-23T16:43:16.172Z,8.80
2018-11-23T16:45:45.915Z,8.90
2018-11-23T16:48:16.925Z,8.90
2018-11-23T16:50:46.541Z,8.90
2018-11-23T16:53:16.774Z,8.90
2018-11-23T16:55:46.375Z,9.00
2018-11-23T16:58:16.104Z,8.90
2018-11-23T17:00:45.537Z,8.90
2018-11-23T17:03:15.267Z,8.90
2018-11-23T17:05:44.751Z,9.00
2018-11-23T17:08:14.563Z,9.00
2018-11-23T17:10:45.646Z,9.00
2018-11-23T17:13:15.468Z,9.10
2018-11-23T17:15:45.134Z,9.10
2018-11-23T17:18:14.701Z,9.10
2018-11-23T17:20:52.866Z,9.10
2018-11-23T17:23:22.921Z,9.10
2018-11-23T17:25:52.846Z,9.10
2018-11-23T17:28:22.095Z,9.00
2018-11-23T17:30:51.748Z,9.00
2018-11-23T17:33:21.493Z,9.00
2018-11-23T17:35:51.133Z,9.00
2018-11-23T17:38:21.194Z,9.00
2018-11-23T17:40:50.867Z,9.10
2018-11-23T17:43:21.269Z,9.10
2018-11-23T17:45:50.693Z,9.10
2018-11-23T17:48:20.621Z,9.00
2018-11-23T17:50:54.661Z,9.00
2018-11-23T17:53:24.822Z,9.10
2018-11-23T17:55:54.773Z,9.00
2018-11-23T17:58:25.029Z,9.10
2018-11-23T18:00:54.496Z,9.20
2018-11-23T18:03:26.747Z,9.20
2018-11-23T18:05:56.163Z,9.20
2018-11-23T18:08:25.845Z,9.10
2018-11-23T18:10:55.305Z,9.20
2018-11-23T18:13:25.238Z,9.20
2018-11-23T18:16:08.692Z,9.40
2018-11-23T18:18:38.584Z,9.40
2018-11-23T18:21:08.394Z,9.50
2018-11-23T18:23:38.620Z,9.50
2018-11-23T18:26:09.359Z,9.50
2018-11-23T18:28:39.136Z,9.50
2018-11-23T18:31:09.040Z,9.50
2018-11-23T18:33:39.303Z,9.60
2018-11-23T18:36:09.049Z,9.60
2018-11-23T18:38:38.402Z,9.70
2018-11-23T18:41:07.501Z,9.70
2018-11-23T18:43:36.961Z,9.70
2018-11-23T18:46:06.940Z,9.70
2018-11-23T18:48:36.428Z,9.70
2018-11-23T18:51:06.149Z,9.70
2018-11-23T18:53:36.617Z,9.70
2018-11-23T18:56:06.660Z,9.70
2018-11-23T18:58:36.177Z,9.80
2018-11-23T19:01:05.761Z,9.80
2018-11-23T19:03:35.091Z,9.70
2018-11-23T19:06:04.431Z,9.70
2018-11-23T19:08:34.663Z,9.70
2018-11-23T19:11:04.143Z,9.70
2018-11-23T19:13:33.637Z,9.70
2018-11-23T19:16:03.409Z,9.80
2018-11-23T19:18:35.286Z,9.90
2018-11-23T19:21:04.605Z,10.00
2018-11-23T19:23:34.254Z,10.10
2018-11-23T19:26:04.286Z,10.10
2018-11-23T19:28:33.769Z,10.20
2018-11-23T19:31:03.148Z,10.10
2018-11-23T19:33:33.915Z,10.10
2018-11-23T19:36:03.580Z,10.20
2018-11-23T19:38:33.033Z,10.10
2018-11-23T19:41:02.831Z,10.20
2018-11-23T19:43:34.276Z,10.20
2018-11-23T19:46:04.876Z,10.20
2018-11-23T19:48:34.310Z,10.20
2018-11-23T19:51:04.037Z,10.30
2018-11-23T19:53:34.494Z,10.30
2018-11-23T19:56:04.028Z,10.20
2018-11-23T19:58:34.849Z,10.30
2018-11-23T20:01:04.451Z,10.30
2018-11-23T20:03:34.097Z,10.50
2018-11-23T20:06:03.769Z,10.60
2018-11-23T20:08:34.880Z,10.70
2018-11-23T20:11:05.579Z,10.80
2018-11-23T20:13:35.790Z,10.70
2018-11-23T20:16:06.321Z,10.60
2018-11-23T20:18:36.469Z,10.50
2018-11-23T20:21:06.221Z,10.50
2018-11-23T20:23:35.662Z,10.50
2018-11-23T20:26:05.600Z,10.50
2018-11-23T20:28:35.436Z,10.50
2018-11-23T20:31:05.226Z,10.60
2018-11-23T20:33:34.616Z,10.60
2018-11-23T20:36:04.981Z,10.70
2018-11-23T20:38:34.598Z,11.00
2018-11-23T20:41:04.788Z,13.50
2018-11-23T20:43:34.244Z,15.10
2018-11-23T20:46:04.888Z,14.70
2018-11-23T20:48:34.330Z,13.90
2018-11-23T20:51:03.733Z,13.20
2018-11-23T20:53:33.162Z,12.80
2018-11-23T20:56:02.400Z,12.40
2018-11-23T20:58:32.159Z,12.30
2018-11-23T21:01:01.819Z,11.90
2018-11-23T21:03:31.081Z,11.60
2018-11-23T21:06:00.836Z,11.40
2018-11-23T21:08:30.919Z,11.30
2018-11-23T21:11:00.481Z,11.20
2018-11-23T21:13:30.159Z,11.10
2018-11-23T21:16:00.112Z,10.90
2018-11-23T21:18:30.235Z,10.90
2018-11-23T21:21:00.676Z,10.90
2018-11-23T21:23:31.302Z,10.80
2018-11-23T21:26:00.903Z,10.80
2018-11-23T21:28:30.625Z,10.60
2018-11-23T21:31:00.510Z,10.50
2018-11-23T21:33:31.174Z,10.50
2018-11-23T21:36:00.648Z,10.50
2018-11-23T21:38:30.136Z,10.40
2018-11-23T21:41:00.514Z,10.40
2018-11-23T21:43:30.104Z,10.40
2018-11-23T21:45:59.937Z,10.40
2018-11-23T21:48:29.621Z,10.50
2018-11-23T21:50:59.016Z,10.60
2018-11-23T21:53:28.573Z,10.70
2018-11-23T21:55:58.113Z,10.70
2018-11-23T21:58:28.405Z,10.60
2018-11-23T22:00:57.851Z,10.50
2018-11-23T22:03:28.466Z,10.40
2018-11-23T22:05:58.799Z,10.30
2018-11-23T22:08:29.920Z,10.30
2018-11-23T22:10:59.502Z,10.30
2018-11-23T22:13:28.866Z,10.20
2018-11-23T22:15:59.051Z,10.10
2018-11-23T22:18:28.786Z,10.10
2018-11-23T22:20:59.074Z,10.00
2018-11-23T22:23:29.509Z,10.00
2018-11-23T22:25:59.950Z,9.90
2018-11-23T22:28:29.815Z,9.80
2018-11-23T22:30:59.115Z,9.80
2018-11-23T22:33:28.365Z,9.90
2018-11-23T22:35:59.039Z,10.00
2018-11-23T22:38:28.561Z,10.00
2018-11-23T22:40:58.383Z,10.10
2018-11-23T22:43:27.891Z,10.20
2018-11-23T22:45:57.794Z,10.20
2018-11-23T22:48:27.016Z,10.30
2018-11-23T22:50:56.522Z,10.30
2018-11-23T22:53:25.942Z,10.40
2018-11-23T22:55:55.564Z,10.40
2018-11-23T22:58:25.184Z,10.40
2018-11-23T23:00:55.170Z,10.50
2018-11-23T23:03:24.785Z,10.50
2018-11-23T23:05:54.705Z,10.50
2018-11-23T23:08:24.035Z,10.50
2018-11-23T23:10:54.751Z,10.50
2018-11-23T23:13:25.075Z,10.30
2018-11-23T23:15:54.306Z,10.20
2018-11-23T23:18:23.863Z,10.00
2018-11-23T23:20:53.307Z,9.90
2018-11-23T23:23:23.392Z,9.80
2018-11-23T23:25:52.982Z,9.70
2018-11-23T23:28:22.607Z,9.70
2018-11-23T23:30:51.938Z,9.50
2018-11-23T23:33:21.614Z,9.50
2018-11-23T23:35:52.066Z,9.40
2018-11-23T23:38:21.719Z,9.30
2018-11-23T23:40:51.131Z,9.30
2018-11-23T23:43:20.719Z,9.20
2018-11-23T23:45:50.203Z,9.30
2018-11-23T23:48:19.681Z,9.30
2018-11-23T23:50:51.018Z,9.20
2018-11-23T23:53:21.288Z,9.10
2018-11-23T23:55:51.387Z,9.10
2018-11-23T23:58:21.039Z,9.00
